createdAt,value
2023-02-24T00:02:15.131Z,3.32
2023-02-24T00:04:41.845Z,3.24
2023-02-24T00:07:10.853Z,3.29
2023-02-24T00:09:40.456Z,3.26
2023-02-24T00:12:10.855Z,3.33
2023-02-24T00:14:40.918Z,3.35
2023-02-24T00:17:08.429Z,3.37
2023-02-24T00:19:35.772Z,3.32
2023-02-24T00:22:03.674Z,3.36
2023-02-24T00:24:30.715Z,3.32
2023-02-24T00:27:02.212Z,3.34
2023-02-24T00:29:30.162Z,3.35
2023-02-24T00:32:01.499Z,3.31
2023-02-24T00:34:33.839Z,3.33
2023-02-24T00:37:00.827Z,3.19
2023-02-24T00:39:33.493Z,3.16
2023-02-24T00:42:07.038Z,3.11
2023-02-24T00:44:37.823Z,3.09
2023-02-24T00:47:06.836Z,3.06
2023-02-24T00:49:35.812Z,2.89
2023-02-24T00:52:06.601Z,2.96
2023-02-24T00:54:36.432Z,2.86
2023-02-24T00:57:03.791Z,2.87
2023-02-24T00:59:30.775Z,2.95
2023-02-24T01:01:57.253Z,2.82
2023-02-24T01:04:23.714Z,2.82
2023-02-24T01:06:59.953Z,2.73
2023-02-24T01:09:31.495Z,2.73
2023-02-24T01:12:16.828Z,2.80
2023-02-24T01:14:46.937Z,2.73
2023-02-24T01:17:14.555Z,2.70
2023-02-24T01:19:41.016Z,2.57
2023-02-24T01:22:10.106Z,2.66
2023-02-24T01:24:41.472Z,2.34
2023-02-24T01:27:09.777Z,2.63
2023-02-24T01:29:39.534Z,2.65
2023-02-24T01:32:12.787Z,2.61
2023-02-24T01:34:42.316Z,2.57
2023-02-24T01:37:09.776Z,2.56
2023-02-24T01:39:36.599Z,2.49
2023-02-24T01:42:04.922Z,2.50
2023-02-24T01:44:32.713Z,2.49
2023-02-24T01:47:03.762Z,2.41
2023-02-24T01:49:41.115Z,2.44
2023-02-24T01:52:24.249Z,2.45
2023-02-24T01:54:50.782Z,2.46
2023-02-24T01:57:20.562Z,2.35
2023-02-24T01:59:51.042Z,2.37
2023-02-24T02:02:19.575Z,2.23
2023-02-24T02:04:48.785Z,2.37
2023-02-24T02:07:20.238Z,2.37
2023-02-24T02:09:48.524Z,2.29
2023-02-24T02:12:15.584Z,2.32
2023-02-24T02:14:47.959Z,2.37
2023-02-24T02:17:38.722Z,2.28
2023-02-24T02:20:20.421Z,2.24
2023-02-24T02:23:16.416Z,2.26
2023-02-24T02:25:57.832Z,2.34
2023-02-24T02:29:00.611Z,2.36
2023-02-24T02:31:56.094Z,2.36
2023-02-24T02:34:29.190Z,2.33
2023-02-24T02:37:24.920Z,2.35
2023-02-24T02:40:08.140Z,2.31
2023-02-24T02:43:01.263Z,2.26
2023-02-24T02:45:40.336Z,2.28
2023-02-24T02:48:20.319Z,2.35
2023-02-24T02:50:56.533Z,2.32
2023-02-24T02:53:30.232Z,2.22
2023-02-24T02:56:03.771Z,2.18
2023-02-24T02:58:36.343Z,2.21
2023-02-24T03:01:07.248Z,2.27
2023-02-24T03:03:55.416Z,2.12
2023-02-24T03:06:30.246Z,2.19
2023-02-24T03:09:16.105Z,2.24
2023-02-24T03:11:48.140Z,2.09
2023-02-24T03:14:19.359Z,2.22
2023-02-24T03:16:51.820Z,2.10
2023-02-24T03:19:24.408Z,2.05
2023-02-24T03:22:06.295Z,2.12
2023-02-24T03:24:36.482Z,2.25
2023-02-24T03:27:13.634Z,2.23
2023-02-24T03:29:50.090Z,2.07
2023-02-24T03:32:20.173Z,2.08
2023-02-24T03:35:24.167Z,2.15
2023-02-24T03:37:51.232Z,1.91
2023-02-24T03:40:18.622Z,2.01
2023-02-24T03:42:48.817Z,2.07
2023-02-24T03:45:16.921Z,2.15
2023-02-24T03:47:46.784Z,2.09
2023-02-24T03:50:16.258Z,2.05
2023-02-24T03:52:48.952Z,2.04
2023-02-24T03:55:16.499Z,2.18
2023-02-24T03:58:13.929Z,2.09
2023-02-24T04:00:46.208Z,2.04
2023-02-24T04:03:18.294Z,2.16
2023-02-24T04:05:56.883Z,2.03
2023-02-24T04:08:26.939Z,2.07
2023-02-24T04:11:05.283Z,2.11
2023-02-24T04:13:43.397Z,2.31
2023-02-24T04:16:28.931Z,2.36
2023-02-24T04:19:03.903Z,2.29
2023-02-24T04:21:32.211Z,2.32
2023-02-24T04:24:06.244Z,2.26
2023-02-24T04:26:36.237Z,2.26
2023-02-24T04:29:03.819Z,2.33
2023-02-24T04:31:33.050Z,2.31
2023-02-24T04:34:00.234Z,2.33
2023-02-24T04:36:26.708Z,2.38
2023-02-24T04:38:54.234Z,2.36
2023-02-24T04:41:23.715Z,2.33
2023-02-24T04:43:50.967Z,2.33
2023-02-24T04:46:19.257Z,2.35
2023-02-24T04:48:46.053Z,2.16
2023-02-24T04:51:13.607Z,2.32
2023-02-24T04:53:40.031Z,2.15
2023-02-24T04:56:09.529Z,2.22
2023-02-24T04:58:40.193Z,2.46
2023-02-24T05:01:10.716Z,2.32
2023-02-24T05:03:42.168Z,2.35
2023-02-24T05:06:16.756Z,2.14
2023-02-24T05:08:43.890Z,2.34
2023-02-24T05:11:17.113Z,2.30
2023-02-24T05:13:48.176Z,2.36
2023-02-24T05:16:17.673Z,2.37
2023-02-24T05:18:44.779Z,2.31
2023-02-24T05:21:32.859Z,2.35
2023-02-24T05:23:59.572Z,2.54
2023-02-24T05:26:26.870Z,2.30
2023-02-24T05:28:56.417Z,2.22
2023-02-24T05:31:28.861Z,2.44
2023-02-24T05:33:59.272Z,2.39
2023-02-24T05:36:29.219Z,2.45
2023-02-24T05:39:04.730Z,2.50
2023-02-24T05:41:35.948Z,2.54
2023-02-24T05:44:08.595Z,2.49
2023-02-24T05:46:37.829Z,2.50
2023-02-24T05:49:09.138Z,2.41
2023-02-24T05:51:39.029Z,2.52
2023-02-24T05:54:08.167Z,2.36
2023-02-24T05:56:37.309Z,2.48
2023-02-24T05:59:07.383Z,2.50
2023-02-24T06:01:37.088Z,2.52
2023-02-24T06:04:06.160Z,2.57
2023-02-24T06:06:41.219Z,2.56
2023-02-24T06:09:13.172Z,2.57
2023-02-24T06:11:40.983Z,2.65
2023-02-24T06:14:08.696Z,2.60
2023-02-24T06:16:40.464Z,2.65
2023-02-24T06:19:08.514Z,2.66
2023-02-24T06:21:37.147Z,2.69
2023-02-24T06:24:05.444Z,2.62
2023-02-24T06:26:36.786Z,2.54
2023-02-24T06:29:05.542Z,2.67
2023-02-24T06:31:32.139Z,2.65
2023-02-24T06:33:58.606Z,2.57
2023-02-24T06:36:25.062Z,2.75
2023-02-24T06:38:52.646Z,2.73
2023-02-24T06:41:19.521Z,2.75
2023-02-24T06:43:48.246Z,2.77
2023-02-24T06:46:16.371Z,2.81
2023-02-24T06:48:43.314Z,2.70
2023-02-24T06:51:15.798Z,2.83
2023-02-24T06:53:43.454Z,2.89
2023-02-24T06:56:14.923Z,2.91
2023-02-24T06:58:46.647Z,2.86
2023-02-24T07:01:19.187Z,2.93
2023-02-24T07:04:02.108Z,2.90
2023-02-24T07:06:34.706Z,2.87
2023-02-24T07:09:07.105Z,2.85
2023-02-24T07:11:35.503Z,2.81
2023-02-24T07:14:05.538Z,2.95
2023-02-24T07:16:34.620Z,3.09
2023-02-24T07:19:05.068Z,2.92
2023-02-24T07:21:39.508Z,2.96
2023-02-24T07:24:08.309Z,3.12
2023-02-24T07:26:34.926Z,3.02
2023-02-24T07:29:04.502Z,3.13
2023-02-24T07:31:34.680Z,3.06
2023-02-24T07:34:02.124Z,3.16
2023-02-24T07:36:38.800Z,3.24
2023-02-24T07:39:08.150Z,3.15
2023-02-24T07:41:35.328Z,3.18
2023-02-24T07:44:03.424Z,3.19
2023-02-24T07:46:30.445Z,3.25
2023-02-24T07:48:59.834Z,3.28
2023-02-24T07:51:27.620Z,3.21
2023-02-24T07:53:58.978Z,3.30
2023-02-24T07:56:27.572Z,3.25
2023-02-24T07:59:02.064Z,3.28
2023-02-24T08:01:38.756Z,3.48
2023-02-24T08:04:12.539Z,3.44
2023-02-24T08:06:45.470Z,3.45
2023-02-24T08:09:17.356Z,3.46
2023-02-24T08:11:52.922Z,3.52
2023-02-24T08:14:23.543Z,3.51
2023-02-24T08:16:59.341Z,3.61
2023-02-24T08:19:39.484Z,3.51
2023-02-24T08:22:21.154Z,3.58
2023-02-24T08:24:52.915Z,3.68
2023-02-24T08:27:21.866Z,3.64
2023-02-24T08:30:00.120Z,3.72
2023-02-24T08:32:33.825Z,3.68
2023-02-24T08:35:03.659Z,3.71
2023-02-24T08:37:39.675Z,3.85
2023-02-24T08:40:31.605Z,3.77
2023-02-24T08:43:16.123Z,3.81
2023-02-24T08:45:59.413Z,3.86
2023-02-24T08:48:38.039Z,3.91
2023-02-24T08:51:17.949Z,3.98
2023-02-24T08:53:46.817Z,4.09
2023-02-24T08:56:24.006Z,3.99
2023-02-24T08:58:57.030Z,3.97
2023-02-24T09:01:34.955Z,4.11
2023-02-24T09:04:10.356Z,3.97
2023-02-24T09:06:39.616Z,3.93
2023-02-24T09:09:18.642Z,3.94
2023-02-24T09:11:56.119Z,4.06
2023-02-24T09:14:28.555Z,4.04
2023-02-24T09:17:11.123Z,4.04
2023-02-24T09:19:40.635Z,4.10
2023-02-24T09:22:21.254Z,4.05
2023-02-24T09:24:50.989Z,4.05
2023-02-24T09:27:17.636Z,4.00
2023-02-24T09:29:49.376Z,3.99
2023-02-24T09:32:16.210Z,4.16
2023-02-24T09:34:46.162Z,4.17
2023-02-24T09:37:27.077Z,4.14
2023-02-24T09:39:54.356Z,4.18
2023-02-24T09:42:23.632Z,4.27
2023-02-24T09:44:52.896Z,4.30
2023-02-24T09:47:54.761Z,4.35
2023-02-24T09:50:40.622Z,4.42
2023-02-24T09:53:17.568Z,4.41
2023-02-24T09:56:00.455Z,4.51
2023-02-24T09:58:43.713Z,4.51
2023-02-24T10:01:33.489Z,4.64
2023-02-24T10:04:21.117Z,4.70
2023-02-24T10:06:50.252Z,4.72
2023-02-24T10:09:38.889Z,4.81
2023-02-24T10:12:05.444Z,4.68
2023-02-24T10:15:18.686Z,4.73
2023-02-24T10:17:58.106Z,4.67
2023-02-24T10:20:56.399Z,4.76
2023-02-24T10:23:35.880Z,4.70
2023-02-24T10:26:07.785Z,4.74
2023-02-24T10:28:53.195Z,4.92
2023-02-24T10:31:30.533Z,4.90
2023-02-24T10:34:06.173Z,4.80
2023-02-24T10:36:35.960Z,4.83
2023-02-24T10:39:20.425Z,4.69
2023-02-24T10:41:57.315Z,4.62
2023-02-24T10:44:26.571Z,4.73
2023-02-24T10:47:14.239Z,4.64
2023-02-24T10:49:57.060Z,4.65
2023-02-24T10:52:51.146Z,4.65
2023-02-24T10:55:39.225Z,4.67
2023-02-24T10:58:07.595Z,4.79
2023-02-24T11:01:12.671Z,4.82
2023-02-24T11:03:46.267Z,4.77
2023-02-24T11:06:42.450Z,4.72
2023-02-24T11:09:30.362Z,4.62
2023-02-24T11:12:19.124Z,4.84
2023-02-24T11:15:16.982Z,4.86
2023-02-24T11:17:59.825Z,4.83
2023-02-24T11:20:52.345Z,4.89
2023-02-24T11:23:33.306Z,4.85
2023-02-24T11:26:04.555Z,5.02
2023-02-24T11:28:36.959Z,4.89
2023-02-24T11:31:25.050Z,4.84
2023-02-24T11:34:07.598Z,4.87
2023-02-24T11:36:46.913Z,4.89
2023-02-24T11:39:22.626Z,5.16
2023-02-24T11:41:57.209Z,5.14
2023-02-24T11:44:41.792Z,5.08
2023-02-24T11:47:17.115Z,5.17
2023-02-24T11:49:51.124Z,5.14
2023-02-24T11:52:28.608Z,5.24
2023-02-24T11:54:58.074Z,5.27
2023-02-24T11:57:37.738Z,5.24
2023-02-24T12:00:21.303Z,5.21
2023-02-24T12:03:03.963Z,5.36
2023-02-24T12:05:39.100Z,5.24
2023-02-24T12:08:29.130Z,5.33
2023-02-24T12:11:39.060Z,5.32
2023-02-24T12:14:30.176Z,5.30
2023-02-24T12:17:17.816Z,5.34
2023-02-24T12:19:57.466Z,5.48
2023-02-24T12:22:28.801Z,5.35
2023-02-24T12:24:55.362Z,5.51
2023-02-24T12:27:46.464Z,5.45
2023-02-24T12:30:39.156Z,5.46
2023-02-24T12:33:12.170Z,5.53
2023-02-24T12:35:51.366Z,5.63
2023-02-24T12:38:32.690Z,5.82
2023-02-24T12:41:28.634Z,5.91
2023-02-24T12:44:33.016Z,5.92
2023-02-24T12:47:06.208Z,6.19
2023-02-24T12:50:06.762Z,6.66
2023-02-24T12:52:44.745Z,7.42
2023-02-24T12:55:23.625Z,8.30
2023-02-24T12:58:16.321Z,8.72
2023-02-24T13:00:59.902Z,7.83
2023-02-24T13:03:54.061Z,7.46
2023-02-24T13:06:35.558Z,7.26
2023-02-24T13:09:38.972Z,7.14
2023-02-24T13:12:40.963Z,6.98
2023-02-24T13:15:19.884Z,6.98
2023-02-24T13:17:48.977Z,6.98
2023-02-24T13:20:34.084Z,7.50
2023-02-24T13:23:03.475Z,7.50
2023-02-24T13:25:37.208Z,7.54
2023-02-24T13:28:06.981Z,7.50
2023-02-24T13:30:38.299Z,9.15
2023-02-24T13:33:22.084Z,11.12
2023-02-24T13:35:51.662Z,11.10
2023-02-24T13:38:35.447Z,11.96
2023-02-24T13:41:19.820Z,11.41
2023-02-24T13:44:22.680Z,11.04
2023-02-24T13:47:11.717Z,9.75
2023-02-24T13:49:56.430Z,10.28
2023-02-24T13:52:37.900Z,11.60
2023-02-24T13:55:26.453Z,11.33
2023-02-24T13:58:20.502Z,10.99
2023-02-24T14:00:59.281Z,10.37
2023-02-24T14:03:27.830Z,9.85
2023-02-24T14:05:55.280Z,9.88
2023-02-24T14:08:27.551Z,9.85
2023-02-24T14:11:00.505Z,9.37
2023-02-24T14:13:34.105Z,8.62
2023-02-24T14:16:05.209Z,7.83
2023-02-24T14:18:31.758Z,7.69
2023-02-24T14:20:58.546Z,7.82
2023-02-24T14:23:27.585Z,7.80
2023-02-24T14:26:07.981Z,7.68
2023-02-24T14:28:40.365Z,7.67
2023-02-24T14:31:12.947Z,7.62
2023-02-24T14:33:41.963Z,7.77
2023-02-24T14:36:20.225Z,7.67
2023-02-24T14:38:46.818Z,7.41
2023-02-24T14:41:39.428Z,7.13
2023-02-24T14:44:19.179Z,7.30
2023-02-24T14:46:47.550Z,7.35
2023-02-24T14:49:22.478Z,7.36
2023-02-24T14:51:52.612Z,7.66
2023-02-24T14:54:28.556Z,7.97
2023-02-24T14:56:55.180Z,8.02
2023-02-24T14:59:33.727Z,7.74
2023-02-24T15:02:02.778Z,7.70
2023-02-24T15:04:43.777Z,7.93
2023-02-24T15:07:22.308Z,7.75
2023-02-24T15:09:50.671Z,7.85
2023-02-24T15:12:27.002Z,7.95
2023-02-24T15:14:57.825Z,7.74
2023-02-24T15:17:24.647Z,7.61
2023-02-24T15:19:54.727Z,7.50
2023-02-24T15:22:28.691Z,7.23
2023-02-24T15:25:28.099Z,7.36
2023-02-24T15:28:02.901Z,7.41
2023-02-24T15:30:36.897Z,7.36
2023-02-24T15:33:21.028Z,7.37
2023-02-24T15:35:51.704Z,7.35
2023-02-24T15:38:42.259Z,7.12
2023-02-24T15:41:10.234Z,7.00
2023-02-24T15:43:56.055Z,6.93
2023-02-24T15:46:32.676Z,6.90
2023-02-24T15:49:02.992Z,6.81
2023-02-24T15:51:32.722Z,6.87
2023-02-24T15:54:01.316Z,6.72
2023-02-24T15:56:28.817Z,6.79
2023-02-24T15:58:55.249Z,6.80
2023-02-24T16:01:21.901Z,6.70
2023-02-24T16:03:49.664Z,6.63
2023-02-24T16:06:21.786Z,6.70
2023-02-24T16:08:50.462Z,6.56
2023-02-24T16:11:20.693Z,6.56
2023-02-24T16:13:52.644Z,6.54
2023-02-24T16:16:21.043Z,6.52
2023-02-24T16:18:48.053Z,6.52
2023-02-24T16:21:14.546Z,6.62
2023-02-24T16:23:41.029Z,6.64
2023-02-24T16:26:14.934Z,6.60
2023-02-24T16:28:42.471Z,6.73
2023-02-24T16:31:09.162Z,6.61
2023-02-24T16:33:51.830Z,6.60
2023-02-24T16:36:22.194Z,6.56
2023-02-24T16:38:51.652Z,6.49
2023-02-24T16:41:18.555Z,6.49
2023-02-24T16:43:45.072Z,6.48
2023-02-24T16:46:22.747Z,6.22
2023-02-24T16:48:53.394Z,6.19
2023-02-24T16:51:20.604Z,6.09
2023-02-24T16:53:47.067Z,6.08
2023-02-24T16:56:15.108Z,6.20
2023-02-24T16:58:41.661Z,6.20
2023-02-24T17:01:09.556Z,6.25
2023-02-24T17:03:47.082Z,6.02
2023-02-24T17:06:13.556Z,6.04
2023-02-24T17:08:42.708Z,5.89
2023-02-24T17:11:21.325Z,5.91
2023-02-24T17:13:47.874Z,5.89
2023-02-24T17:16:14.320Z,5.77
2023-02-24T17:18:40.786Z,5.68
2023-02-24T17:21:07.489Z,5.65
2023-02-24T17:23:34.037Z,5.64
2023-02-24T17:26:02.311Z,5.72
2023-02-24T17:28:28.946Z,5.65
2023-02-24T17:30:55.552Z,5.80
2023-02-24T17:33:22.225Z,5.74
2023-02-24T17:35:48.989Z,5.59
2023-02-24T17:38:18.062Z,5.64
2023-02-24T17:40:45.603Z,5.57
2023-02-24T17:43:12.301Z,5.68
2023-02-24T17:45:43.040Z,5.56
2023-02-24T17:48:10.094Z,5.48
2023-02-24T17:50:37.050Z,5.42
2023-02-24T17:53:03.995Z,5.49
2023-02-24T17:55:30.445Z,5.34
2023-02-24T17:57:58.934Z,5.36
2023-02-24T18:00:25.363Z,5.35
2023-02-24T18:02:53.484Z,5.33
2023-02-24T18:05:20.335Z,5.33
2023-02-24T18:07:46.833Z,5.38
2023-02-24T18:10:13.355Z,5.49
2023-02-24T18:12:39.870Z,5.44
2023-02-24T18:15:09.018Z,5.41
2023-02-24T18:17:37.356Z,5.35
2023-02-24T18:20:05.347Z,5.41
2023-02-24T18:22:31.828Z,5.38
2023-02-24T18:24:59.229Z,5.51
2023-02-24T18:27:25.883Z,5.35
2023-02-24T18:29:53.746Z,5.15
2023-02-24T18:32:20.417Z,5.23
2023-02-24T18:34:47.124Z,5.08
2023-02-24T18:37:14.160Z,5.06
2023-02-24T18:39:40.633Z,5.11
2023-02-24T18:42:07.140Z,4.96
2023-02-24T18:44:33.594Z,4.93
2023-02-24T18:47:00.094Z,4.85
2023-02-24T18:49:26.584Z,4.79
2023-02-24T18:51:53.024Z,4.62
2023-02-24T18:54:20.170Z,4.76
2023-02-24T18:56:46.693Z,4.84
2023-02-24T18:59:13.155Z,4.72
2023-02-24T19:01:40.100Z,4.74
2023-02-24T19:04:07.873Z,4.56
2023-02-24T19:06:36.159Z,4.67
2023-02-24T19:09:10.336Z,4.72
2023-02-24T19:11:38.082Z,4.69
2023-02-24T19:14:05.165Z,4.66
2023-02-24T19:16:32.482Z,4.54
2023-02-24T19:18:59.973Z,4.67
2023-02-24T19:21:28.850Z,4.64
2023-02-24T19:23:55.982Z,4.53
2023-02-24T19:26:25.486Z,4.59
2023-02-24T19:28:52.750Z,4.67
2023-02-24T19:31:22.828Z,4.58
2023-02-24T19:33:53.989Z,4.47
2023-02-24T19:36:21.035Z,4.62
2023-02-24T19:38:47.722Z,4.63
2023-02-24T19:41:14.394Z,4.55
2023-02-24T19:43:43.780Z,4.44
2023-02-24T19:46:13.105Z,4.37
2023-02-24T19:48:40.383Z,4.43
2023-02-24T19:51:12.323Z,4.33
2023-02-24T19:53:39.114Z,4.25
2023-02-24T19:56:05.977Z,4.14
2023-02-24T19:58:32.418Z,4.25
2023-02-24T20:01:10.357Z,4.34
2023-02-24T20:03:42.302Z,4.41
2023-02-24T20:06:20.815Z,4.42
2023-02-24T20:08:47.917Z,4.49
2023-02-24T20:11:15.034Z,4.40
2023-02-24T20:13:41.526Z,4.46
2023-02-24T20:16:11.803Z,4.42
2023-02-24T20:18:39.109Z,4.45
2023-02-24T20:21:06.031Z,4.58
2023-02-24T20:23:33.382Z,4.56
2023-02-24T20:26:00.470Z,4.59
2023-02-24T20:28:27.921Z,4.50
2023-02-24T20:30:56.704Z,4.46
2023-02-24T20:33:23.323Z,4.49
2023-02-24T20:35:49.778Z,4.56
2023-02-24T20:38:16.344Z,4.43
2023-02-24T20:40:42.853Z,4.61
2023-02-24T20:43:10.337Z,4.61
2023-02-24T20:45:38.603Z,4.69
2023-02-24T20:48:05.172Z,4.67
2023-02-24T20:50:31.727Z,4.67
2023-02-24T20:52:58.199Z,4.79
2023-02-24T20:55:24.606Z,4.75
2023-02-24T20:57:51.234Z,4.70
2023-02-24T21:00:18.094Z,4.58
2023-02-24T21:02:44.571Z,4.48
2023-02-24T21:05:20.357Z,4.51
2023-02-24T21:07:48.182Z,4.47
2023-02-24T21:10:14.749Z,4.42
2023-02-24T21:12:41.252Z,4.37
2023-02-24T21:15:08.720Z,4.46
2023-02-24T21:17:35.205Z,4.44
2023-02-24T21:20:01.802Z,4.40
2023-02-24T21:22:31.406Z,4.41
2023-02-24T21:24:58.457Z,4.49
2023-02-24T21:27:26.519Z,4.50
2023-02-24T21:29:53.412Z,4.38
2023-02-24T21:32:20.070Z,4.33
2023-02-24T21:34:46.664Z,4.29
2023-02-24T21:37:13.107Z,4.46
2023-02-24T21:39:39.611Z,4.47
2023-02-24T21:42:07.413Z,4.58
2023-02-24T21:44:33.888Z,4.60
2023-02-24T21:47:00.335Z,4.59
2023-02-24T21:49:26.911Z,4.61
2023-02-24T21:51:55.155Z,4.49
2023-02-24T21:54:22.059Z,4.49
2023-02-24T21:56:48.598Z,4.56
2023-02-24T21:59:15.172Z,4.57
2023-02-24T22:01:43.033Z,4.48
2023-02-24T22:04:18.842Z,4.51
2023-02-24T22:06:45.826Z,4.50
2023-02-24T22:09:20.516Z,4.56
2023-02-24T22:11:48.619Z,4.39
2023-02-24T22:14:15.716Z,4.36
2023-02-24T22:16:43.340Z,4.38
2023-02-24T22:19:10.572Z,4.31
2023-02-24T22:21:39.256Z,4.49
2023-02-24T22:24:06.067Z,4.41
2023-02-24T22:26:33.199Z,4.23
2023-02-24T22:29:01.310Z,4.05
2023-02-24T22:31:30.267Z,3.99
2023-02-24T22:33:57.353Z,3.92
2023-02-24T22:36:27.264Z,3.99
2023-02-24T22:38:56.150Z,4.08
2023-02-24T22:41:28.351Z,3.92
2023-02-24T22:43:54.998Z,4.05
2023-02-24T22:46:24.917Z,4.03
2023-02-24T22:48:51.580Z,4.20
2023-02-24T22:51:19.264Z,4.19
2023-02-24T22:53:49.060Z,4.17
2023-02-24T22:56:18.996Z,4.06
2023-02-24T22:58:46.116Z,4.18
2023-02-24T23:01:13.801Z,4.12
2023-02-24T23:03:40.969Z,3.97
2023-02-24T23:06:10.434Z,4.04
2023-02-24T23:08:39.322Z,3.85
2023-02-24T23:11:09.186Z,3.81
2023-02-24T23:13:35.735Z,3.81
2023-02-24T23:16:03.544Z,3.67
2023-02-24T23:18:31.636Z,3.74
2023-02-24T23:21:04.013Z,3.72
2023-02-24T23:23:31.763Z,3.74
2023-02-24T23:25:59.625Z,3.89
2023-02-24T23:28:27.192Z,3.97
2023-02-24T23:30:55.237Z,3.81
2023-02-24T23:33:22.950Z,3.84
2023-02-24T23:35:49.931Z,3.93
2023-02-24T23:38:16.696Z,3.76
2023-02-24T23:40:50.665Z,3.85
2023-02-24T23:43:18.317Z,3.69
2023-02-24T23:45:45.119Z,3.90
2023-02-24T23:48:13.943Z,3.71
2023-02-24T23:50:42.663Z,3.71
2023-02-24T23:53:09.916Z,3.61
2023-02-24T23:55:40.127Z,3.67
2023-02-24T23:58:07.414Z,3.73
